createdAt,value
2023-03-27T00:00:16.418Z,9.65
2023-03-27T00:02:47.074Z,9.95
2023-03-27T00:05:16.350Z,7.60
2023-03-27T00:07:44.605Z,6.03
2023-03-27T00:10:13.583Z,7.38
2023-03-27T00:12:41.885Z,11.02
2023-03-27T00:15:15.953Z,7.22
2023-03-27T00:17:46.730Z,7.32
2023-03-27T00:20:16.164Z,6.22
2023-03-27T00:22:44.815Z,4.43
2023-03-27T00:25:13.361Z,3.63
2023-03-27T00:27:42.000Z,8.15
2023-03-27T00:30:13.103Z,7.60
2023-03-27T00:32:41.393Z,4.82
2023-03-27T00:35:10.630Z,9.73
2023-03-27T00:37:39.973Z,8.25
2023-03-27T00:40:13.707Z,8.35
2023-03-27T00:42:42.049Z,10.10
2023-03-27T00:45:18.262Z,7.47
2023-03-27T00:47:49.082Z,8.77
2023-03-27T00:50:22.393Z,9.23
2023-03-27T00:55:22.466Z,10.10
2023-03-27T00:57:55.444Z,7.25
2023-03-27T01:00:25.226Z,10.75
2023-03-27T01:02:53.672Z,9.15
2023-03-27T01:05:22.434Z,11.82
2023-03-27T01:08:01.314Z,11.27
2023-03-27T01:10:37.088Z,7.55
2023-03-27T01:13:18.264Z,6.53
2023-03-27T01:15:53.968Z,8.73
2023-03-27T01:18:36.128Z,10.73
2023-03-27T01:21:38.704Z,6.40
2023-03-27T01:24:28.898Z,7.53
2023-03-27T01:27:05.466Z,7.03
2023-03-27T01:30:02.788Z,5.75
2023-03-27T01:33:06.463Z,7.82
2023-03-27T01:36:02.760Z,6.97
2023-03-27T01:39:17.190Z,6.60
2023-03-27T01:41:53.303Z,8.02
2023-03-27T01:44:36.415Z,9.25
2023-03-27T01:47:22.721Z,9.32
2023-03-27T01:49:55.270Z,5.72
2023-03-27T01:52:29.303Z,4.40
2023-03-27T01:55:05.056Z,7.70
2023-03-27T01:57:48.794Z,5.15
2023-03-27T02:00:22.323Z,6.50
2023-03-27T02:02:55.383Z,8.07
2023-03-27T02:05:29.022Z,5.40
2023-03-27T02:08:01.255Z,9.10
2023-03-27T02:10:35.260Z,8.27
2023-03-27T02:13:07.581Z,8.32
2023-03-27T02:15:41.024Z,8.27
2023-03-27T02:18:12.790Z,5.78
2023-03-27T02:20:42.927Z,6.65
2023-03-27T02:23:11.989Z,6.68
2023-03-27T02:25:42.908Z,5.72
2023-03-27T02:28:30.507Z,10.18
2023-03-27T02:31:31.640Z,9.07
2023-03-27T02:34:08.994Z,5.97
2023-03-27T02:36:44.871Z,9.25
2023-03-27T02:39:18.770Z,9.25
2023-03-27T02:41:53.695Z,9.57
2023-03-27T02:44:29.581Z,6.97
2023-03-27T02:47:03.356Z,8.38
2023-03-27T02:49:36.104Z,8.93
2023-03-27T02:52:09.059Z,7.65
2023-03-27T02:54:41.976Z,9.55
2023-03-27T02:57:16.920Z,11.32
2023-03-27T02:59:51.006Z,5.20
2023-03-27T03:02:24.748Z,8.23
2023-03-27T03:04:59.104Z,6.30
2023-03-27T03:07:27.601Z,9.48
2023-03-27T03:09:56.254Z,10.85
2023-03-27T03:12:25.986Z,11.25
2023-03-27T03:14:54.283Z,9.32
2023-03-27T03:17:22.607Z,7.93
2023-03-27T03:19:50.874Z,9.90
2023-03-27T03:22:19.160Z,12.43
2023-03-27T03:24:47.572Z,7.50
2023-03-27T03:27:15.779Z,6.93
2023-03-27T03:29:46.285Z,7.60
2023-03-27T03:32:14.622Z,4.97
2023-03-27T03:34:46.576Z,9.15
2023-03-27T03:37:14.966Z,5.97
2023-03-27T03:39:43.130Z,7.05
2023-03-27T03:42:22.667Z,6.38
2023-03-27T03:44:53.698Z,11.07
2023-03-27T03:47:21.872Z,3.97
2023-03-27T03:49:50.068Z,15.98
2023-03-27T03:52:18.304Z,8.18
2023-03-27T03:54:46.869Z,7.80
2023-03-27T03:57:15.420Z,6.40
2023-03-27T03:59:43.871Z,8.57
2023-03-27T04:02:18.116Z,4.35
2023-03-27T04:04:46.724Z,9.18
2023-03-27T04:07:17.806Z,9.70
2023-03-27T04:09:45.998Z,11.20
2023-03-27T04:12:14.220Z,10.02
2023-03-27T04:14:42.539Z,6.50
2023-03-27T04:17:11.374Z,9.65
2023-03-27T04:19:41.812Z,7.47
2023-03-27T04:22:09.983Z,10.50
2023-03-27T04:24:38.144Z,6.43
2023-03-27T04:27:08.291Z,10.05
2023-03-27T04:29:36.467Z,10.20
2023-03-27T04:32:05.732Z,6.07
2023-03-27T04:34:33.906Z,5.30
2023-03-27T04:37:03.471Z,9.77
2023-03-27T04:39:36.138Z,10.02
2023-03-27T04:42:04.446Z,11.27
2023-03-27T04:44:34.927Z,9.80
2023-03-27T04:47:03.196Z,8.27
2023-03-27T04:49:38.606Z,5.35
2023-03-27T04:52:08.534Z,7.05
2023-03-27T04:54:37.173Z,12.18
2023-03-27T04:57:05.772Z,7.63
2023-03-27T04:59:34.162Z,10.25
2023-03-27T05:02:02.676Z,9.43
2023-03-27T05:04:33.512Z,2.63
2023-03-27T05:07:04.579Z,6.13
2023-03-27T05:09:34.249Z,14.15
2023-03-27T05:12:02.631Z,12.50
2023-03-27T05:14:30.945Z,10.50
2023-03-27T05:17:00.846Z,17.80
2023-03-27T05:19:29.268Z,30.27
2023-03-27T05:21:57.441Z,8.73
2023-03-27T05:24:25.644Z,10.60
2023-03-27T05:26:55.238Z,10.93
2023-03-27T05:29:23.488Z,17.35
2023-03-27T05:31:51.661Z,17.33
2023-03-27T05:34:20.832Z,11.13
2023-03-27T05:36:49.293Z,27.30
2023-03-27T05:39:17.505Z,11.15
2023-03-27T05:41:45.716Z,6.78
2023-03-27T05:44:15.256Z,8.63
2023-03-27T05:46:43.710Z,6.45
2023-03-27T05:49:11.923Z,9.57
2023-03-27T05:51:40.333Z,5.32
2023-03-27T05:54:15.876Z,10.25
2023-03-27T05:56:44.135Z,7.45
2023-03-27T05:59:13.064Z,8.43
2023-03-27T06:01:42.700Z,7.30
2023-03-27T06:04:12.472Z,9.93
2023-03-27T06:06:40.891Z,6.95
2023-03-27T06:09:09.806Z,8.68
2023-03-27T06:11:38.136Z,5.57
2023-03-27T06:14:06.416Z,9.35
2023-03-27T06:16:34.979Z,9.52
2023-03-27T06:19:04.564Z,4.47
2023-03-27T06:21:32.730Z,9.70
2023-03-27T06:24:00.923Z,7.85
2023-03-27T06:26:29.110Z,10.18
2023-03-27T06:28:57.292Z,10.57
2023-03-27T06:31:25.712Z,8.05
2023-03-27T06:33:53.918Z,8.80
2023-03-27T06:36:23.535Z,4.43
2023-03-27T06:38:52.044Z,13.27
2023-03-27T06:41:20.381Z,11.10
2023-03-27T06:43:49.148Z,8.15
2023-03-27T06:46:17.380Z,8.98
2023-03-27T06:48:45.784Z,9.73
2023-03-27T06:51:14.137Z,10.13
2023-03-27T06:53:43.882Z,14.52
2023-03-27T06:56:12.395Z,7.93
2023-03-27T06:58:40.867Z,13.93
2023-03-27T07:01:09.037Z,12.15
2023-03-27T07:03:37.378Z,8.77
2023-03-27T07:06:05.991Z,10.43
2023-03-27T07:08:34.253Z,17.38
2023-03-27T07:13:35.126Z,9.02
2023-03-27T07:16:03.899Z,9.15
2023-03-27T07:18:32.223Z,10.48
2023-03-27T07:21:00.732Z,12.93
2023-03-27T07:23:29.099Z,6.70
2023-03-27T07:25:59.594Z,6.10
2023-03-27T07:28:29.420Z,9.95
2023-03-27T07:30:57.743Z,6.72
2023-03-27T07:33:26.089Z,8.27
2023-03-27T07:35:54.547Z,19.42
2023-03-27T07:38:22.888Z,14.52
2023-03-27T07:40:51.086Z,10.20
2023-03-27T07:43:19.311Z,11.73
2023-03-27T07:45:49.709Z,13.68
2023-03-27T07:48:18.972Z,11.70
2023-03-27T07:50:47.911Z,13.32
2023-03-27T07:53:33.019Z,17.58
2023-03-27T07:56:02.807Z,18.20
2023-03-27T07:58:31.061Z,7.80
2023-03-27T08:01:03.270Z,7.65
2023-03-27T08:03:32.328Z,9.27
2023-03-27T08:06:01.538Z,7.57
2023-03-27T08:08:29.832Z,8.02
2023-03-27T08:10:58.714Z,10.05
2023-03-27T08:13:27.038Z,6.90
2023-03-27T08:16:05.170Z,7.80
2023-03-27T08:18:33.465Z,4.85
2023-03-27T08:21:03.287Z,5.15
2023-03-27T08:23:33.124Z,8.38
2023-03-27T08:26:02.037Z,5.47
2023-03-27T08:28:31.174Z,8.02
2023-03-27T08:31:02.380Z,6.82
2023-03-27T08:33:32.541Z,13.13
2023-03-27T08:36:00.786Z,6.22
2023-03-27T08:38:33.423Z,5.28
2023-03-27T08:41:03.850Z,5.32
2023-03-27T08:43:37.413Z,3.95
2023-03-27T08:46:09.952Z,5.93
2023-03-27T08:48:44.828Z,1.60
2023-03-27T08:51:18.927Z,3.55
2023-03-27T08:53:52.920Z,1.67
2023-03-27T08:56:22.350Z,3.72
2023-03-27T08:58:50.658Z,3.05
2023-03-27T09:01:26.463Z,4.55
2023-03-27T09:04:04.349Z,5.32
2023-03-27T09:06:39.585Z,3.05
2023-03-27T09:09:18.303Z,4.70
2023-03-27T09:11:55.640Z,5.90
2023-03-27T09:14:31.649Z,5.80
2023-03-27T09:17:05.114Z,4.70
2023-03-27T09:19:42.251Z,3.65
2023-03-27T09:22:16.033Z,4.85
2023-03-27T09:24:47.600Z,3.65
2023-03-27T09:27:20.294Z,2.85
2023-03-27T09:30:05.381Z,3.22
2023-03-27T09:32:34.994Z,3.75
2023-03-27T09:35:05.725Z,4.40
2023-03-27T09:37:36.856Z,3.78
2023-03-27T09:40:08.638Z,3.60
2023-03-27T09:42:40.299Z,3.88
2023-03-27T09:45:11.667Z,2.92
2023-03-27T09:47:46.669Z,2.20
2023-03-27T09:50:27.716Z,1.55
2023-03-27T09:53:09.449Z,4.20
2023-03-27T09:55:50.540Z,4.15
2023-03-27T09:58:32.913Z,1.42
2023-03-27T10:01:09.565Z,2.20
2023-03-27T10:03:42.975Z,3.83
2023-03-27T10:06:17.171Z,1.75
2023-03-27T10:08:50.011Z,3.70
2023-03-27T10:11:23.737Z,2.05
2023-03-27T10:13:53.170Z,4.22
2023-03-27T10:16:23.792Z,1.67
2023-03-27T10:18:55.848Z,3.67
2023-03-27T10:21:32.759Z,1.85
2023-03-27T10:24:04.136Z,3.47
2023-03-27T10:26:34.402Z,4.57
2023-03-27T10:29:16.966Z,2.97
2023-03-27T10:31:52.054Z,3.53
2023-03-27T10:34:32.869Z,2.95
2023-03-27T10:37:04.392Z,2.90
2023-03-27T10:39:36.475Z,3.30
2023-03-27T10:42:09.020Z,2.88
2023-03-27T10:44:38.809Z,3.10
2023-03-27T10:47:16.256Z,3.75
2023-03-27T10:49:49.893Z,3.67
2023-03-27T10:52:25.001Z,1.67
2023-03-27T10:55:09.125Z,3.97
2023-03-27T10:57:38.250Z,6.20
2023-03-27T11:00:18.655Z,1.90
2023-03-27T11:02:54.428Z,3.28
2023-03-27T11:05:30.476Z,2.60
2023-03-27T11:08:08.660Z,2.83
2023-03-27T11:10:43.866Z,5.72
2023-03-27T11:13:17.603Z,3.90
2023-03-27T11:15:50.509Z,2.25
2023-03-27T11:18:23.754Z,1.92
2023-03-27T11:23:32.250Z,2.78
2023-03-27T11:26:04.070Z,1.88
2023-03-27T11:28:42.951Z,2.22
2023-03-27T11:31:17.869Z,2.53
2023-03-27T11:33:50.597Z,2.47
2023-03-27T11:36:39.745Z,2.35
2023-03-27T11:39:30.047Z,2.05
2023-03-27T11:42:01.654Z,1.77
2023-03-27T11:44:30.738Z,1.95
2023-03-27T11:47:11.333Z,1.08
2023-03-27T11:49:48.668Z,1.30
2023-03-27T11:52:31.864Z,2.08
2023-03-27T11:55:17.559Z,2.35
2023-03-27T11:57:58.721Z,3.90
2023-03-27T12:00:36.422Z,1.38
2023-03-27T12:03:38.876Z,2.42
2023-03-27T12:06:14.702Z,2.83
2023-03-27T12:09:11.528Z,4.20
2023-03-27T12:11:45.217Z,1.95
2023-03-27T12:14:40.639Z,1.17
2023-03-27T12:17:36.512Z,1.50
2023-03-27T12:20:28.570Z,1.08
2023-03-27T12:23:03.961Z,1.50
2023-03-27T12:25:52.218Z,1.00
2023-03-27T12:28:40.141Z,1.95
2023-03-27T12:31:29.058Z,4.82
2023-03-27T12:34:02.794Z,3.63
2023-03-27T12:36:35.871Z,1.58
2023-03-27T12:39:16.246Z,4.88
2023-03-27T12:41:46.312Z,1.27
2023-03-27T12:44:21.703Z,2.28
2023-03-27T12:47:07.738Z,1.15
2023-03-27T12:49:48.122Z,3.22
2023-03-27T12:52:35.154Z,1.02
2023-03-27T12:55:32.273Z,1.95
2023-03-27T12:58:03.788Z,2.42
2023-03-27T13:00:34.548Z,1.63
2023-03-27T13:03:43.307Z,3.25
2023-03-27T13:06:23.543Z,2.15
2023-03-27T13:09:31.130Z,3.50
2023-03-27T13:12:21.456Z,2.88
2023-03-27T13:15:19.159Z,1.38
2023-03-27T13:18:16.635Z,1.33
2023-03-27T13:20:55.220Z,2.00
2023-03-27T13:23:35.003Z,1.80
2023-03-27T13:26:20.413Z,5.38
2023-03-27T13:28:51.349Z,4.28
2023-03-27T13:31:58.640Z,1.77
2023-03-27T13:34:37.146Z,2.60
2023-03-27T13:37:43.632Z,7.53
2023-03-27T13:40:24.745Z,2.08
2023-03-27T13:43:00.498Z,1.65
2023-03-27T13:45:38.936Z,3.75
2023-03-27T13:48:34.917Z,2.92
2023-03-27T13:51:40.516Z,1.00
2023-03-27T13:54:48.251Z,3.90
2023-03-27T13:57:28.627Z,2.67
2023-03-27T14:00:19.080Z,4.40
2023-03-27T14:03:22.134Z,3.85
2023-03-27T14:06:29.032Z,2.60
2023-03-27T14:09:08.084Z,2.72
2023-03-27T14:11:55.066Z,1.35
2023-03-27T14:14:50.563Z,2.30
2023-03-27T14:17:52.428Z,1.30
2023-03-27T14:20:25.179Z,2.97
2023-03-27T14:22:59.815Z,1.65
2023-03-27T14:25:34.005Z,2.00
2023-03-27T14:28:02.619Z,1.50
2023-03-27T14:30:33.292Z,1.70
2023-03-27T14:33:09.231Z,1.30
2023-03-27T14:35:39.222Z,2.33
2023-03-27T14:38:18.047Z,2.03
2023-03-27T14:40:55.058Z,1.88
2023-03-27T14:43:23.696Z,1.55
2023-03-27T14:45:55.260Z,3.65
2023-03-27T14:48:26.918Z,1.40
2023-03-27T14:51:02.044Z,2.72
2023-03-27T14:53:36.375Z,2.33
2023-03-27T14:56:11.669Z,1.25
2023-03-27T14:58:45.003Z,0.93
2023-03-27T15:03:46.576Z,0.93
2023-03-27T15:06:17.013Z,0.57
2023-03-27T15:08:49.984Z,1.27
2023-03-27T15:11:20.876Z,1.17
2023-03-27T15:13:49.541Z,2.63
2023-03-27T15:16:21.038Z,2.45
2023-03-27T15:19:04.743Z,2.47
2023-03-27T15:21:45.213Z,2.25
2023-03-27T15:24:19.643Z,4.28
2023-03-27T15:26:53.509Z,7.60
2023-03-27T15:29:32.509Z,3.78
2023-03-27T15:32:08.820Z,6.07
2023-03-27T15:34:47.378Z,6.25
2023-03-27T15:37:19.834Z,2.45
2023-03-27T15:40:36.666Z,2.47
2023-03-27T15:43:19.248Z,1.90
2023-03-27T15:46:03.000Z,2.17
2023-03-27T15:48:33.452Z,1.40
2023-03-27T15:51:03.325Z,1.83
2023-03-27T15:53:33.496Z,4.35
2023-03-27T15:56:05.251Z,2.65
2023-03-27T15:58:44.709Z,3.13
2023-03-27T16:01:19.586Z,1.73
2023-03-27T16:03:50.505Z,1.85
2023-03-27T16:06:30.808Z,1.25
2023-03-27T16:08:59.769Z,1.00
2023-03-27T16:11:39.899Z,0.60
2023-03-27T16:14:27.454Z,0.60
2023-03-27T16:17:10.874Z,2.55
2023-03-27T16:19:44.256Z,0.90
2023-03-27T16:24:41.477Z,2.15
2023-03-27T16:27:13.565Z,0.98
2023-03-27T16:29:41.770Z,1.50
2023-03-27T16:32:13.912Z,0.77
2023-03-27T16:34:42.159Z,2.25
2023-03-27T16:37:10.344Z,2.60
2023-03-27T16:39:38.563Z,1.92
2023-03-27T16:42:06.853Z,1.40
2023-03-27T16:44:36.454Z,2.80
2023-03-27T16:47:04.790Z,1.45
2023-03-27T16:49:32.994Z,2.35
2023-03-27T16:52:01.254Z,2.15
2023-03-27T16:54:29.448Z,5.05
2023-03-27T16:56:57.683Z,5.22
2023-03-27T16:59:26.431Z,3.05
2023-03-27T17:01:56.353Z,2.05
2023-03-27T17:04:25.413Z,2.20
2023-03-27T17:06:53.680Z,3.65
2023-03-27T17:09:22.647Z,1.25
2023-03-27T17:11:51.072Z,1.75
2023-03-27T17:14:19.306Z,8.00
2023-03-27T17:16:48.874Z,4.30
2023-03-27T17:19:18.584Z,9.20
2023-03-27T17:21:46.760Z,5.75
2023-03-27T17:24:15.253Z,3.40
2023-03-27T17:26:43.449Z,2.70
2023-03-27T17:29:11.699Z,3.08
2023-03-27T17:31:40.020Z,6.50
2023-03-27T17:34:08.631Z,8.45
2023-03-27T17:36:43.351Z,13.18
2023-03-27T17:39:13.432Z,8.75
2023-03-27T17:41:41.639Z,10.32
2023-03-27T17:44:12.375Z,15.60
2023-03-27T17:46:40.601Z,19.98
2023-03-27T17:49:08.838Z,12.65
2023-03-27T17:51:38.771Z,13.23
2023-03-27T17:54:07.084Z,15.50
2023-03-27T17:56:35.733Z,10.82
2023-03-27T17:59:04.915Z,7.15
2023-03-27T18:01:33.192Z,8.02
2023-03-27T18:04:01.532Z,10.95
2023-03-27T18:06:29.823Z,5.68
2023-03-27T18:08:59.422Z,4.45
2023-03-27T18:11:29.252Z,3.80
2023-03-27T18:13:57.506Z,9.43
2023-03-27T18:16:25.749Z,4.88
2023-03-27T18:18:55.649Z,4.28
2023-03-27T18:21:24.142Z,10.93
2023-03-27T18:23:53.910Z,22.75
2023-03-27T18:26:23.598Z,6.75
2023-03-27T18:28:52.443Z,10.02
2023-03-27T18:31:20.945Z,9.60
2023-03-27T18:33:49.203Z,15.70
2023-03-27T18:36:17.547Z,8.05
2023-03-27T18:38:47.172Z,6.57
2023-03-27T18:41:16.769Z,7.60
2023-03-27T18:43:46.825Z,6.65
2023-03-27T18:46:17.152Z,7.10
2023-03-27T18:48:46.205Z,13.25
2023-03-27T18:51:14.552Z,9.48
2023-03-27T18:53:42.768Z,13.90
2023-03-27T18:56:10.999Z,21.35
2023-03-27T18:58:39.531Z,24.75
2023-03-27T19:01:10.482Z,13.55
2023-03-27T19:03:39.644Z,17.30
2023-03-27T19:06:10.721Z,10.63
2023-03-27T19:08:42.018Z,4.05
2023-03-27T19:11:11.020Z,3.70
2023-03-27T19:13:39.236Z,7.50
2023-03-27T19:16:13.813Z,7.45
2023-03-27T19:18:43.653Z,18.77
2023-03-27T19:21:11.937Z,15.05
2023-03-27T19:23:40.151Z,11.55
2023-03-27T19:26:09.919Z,7.30
2023-03-27T19:28:39.910Z,11.13
2023-03-27T19:31:12.047Z,8.23
2023-03-27T19:33:41.180Z,16.98
2023-03-27T19:36:10.520Z,16.77
2023-03-27T19:38:38.941Z,16.65
2023-03-27T19:41:10.081Z,13.77
2023-03-27T19:43:40.062Z,12.00
2023-03-27T19:46:16.352Z,9.52
2023-03-27T19:48:45.317Z,12.88
2023-03-27T19:51:13.691Z,19.65
2023-03-27T19:53:42.330Z,18.23
2023-03-27T19:56:10.706Z,17.15
2023-03-27T19:58:39.009Z,17.73
2023-03-27T20:01:07.634Z,23.17
2023-03-27T20:03:38.569Z,28.92
2023-03-27T20:06:15.123Z,39.00
2023-03-27T20:08:44.522Z,25.52
2023-03-27T20:11:12.780Z,29.30
2023-03-27T20:13:53.231Z,18.20
2023-03-27T20:16:26.487Z,7.13
2023-03-27T20:19:03.403Z,7.47
2023-03-27T20:21:34.623Z,5.72
2023-03-27T20:24:03.427Z,6.03
2023-03-27T20:26:38.926Z,7.85
2023-03-27T20:29:08.424Z,8.98
2023-03-27T20:31:36.903Z,11.43
2023-03-27T20:34:08.743Z,7.97
2023-03-27T20:36:39.276Z,6.40
2023-03-27T20:39:09.213Z,17.13
2023-03-27T20:41:39.078Z,6.95
2023-03-27T20:44:14.925Z,5.25
2023-03-27T20:46:47.816Z,3.95
2023-03-27T20:51:57.721Z,3.42
2023-03-27T20:54:26.304Z,2.63
2023-03-27T20:56:54.902Z,5.07
2023-03-27T20:59:23.329Z,3.38
2023-03-27T21:01:51.975Z,3.15
2023-03-27T21:04:24.385Z,4.13
2023-03-27T21:06:55.031Z,5.87
2023-03-27T21:09:23.965Z,14.30
2023-03-27T21:11:53.551Z,10.35
2023-03-27T21:14:22.279Z,19.20
2023-03-27T21:16:53.751Z,14.32
2023-03-27T21:19:23.871Z,17.63
2023-03-27T21:21:52.375Z,8.15
2023-03-27T21:24:20.975Z,8.57
2023-03-27T21:26:49.382Z,10.80
2023-03-27T21:29:18.446Z,9.60
2023-03-27T21:31:46.973Z,9.35
2023-03-27T21:34:15.720Z,7.72
2023-03-27T21:36:45.523Z,4.30
2023-03-27T21:39:16.028Z,3.17
2023-03-27T21:41:44.258Z,3.33
2023-03-27T21:44:12.589Z,3.25
2023-03-27T21:46:40.836Z,5.35
2023-03-27T21:49:09.087Z,4.45
2023-03-27T21:51:37.832Z,1.98
2023-03-27T21:54:07.742Z,3.75
2023-03-27T21:56:36.173Z,8.32
2023-03-27T21:59:04.476Z,4.57
2023-03-27T22:01:32.916Z,7.25
2023-03-27T22:04:02.297Z,4.82
2023-03-27T22:06:31.624Z,5.07
2023-03-27T22:08:59.848Z,5.60
2023-03-27T22:11:29.581Z,4.95
2023-03-27T22:13:59.207Z,5.82
2023-03-27T22:16:27.675Z,4.57
2023-03-27T22:18:56.100Z,5.00
2023-03-27T22:21:26.371Z,6.47
2023-03-27T22:23:56.550Z,6.50
2023-03-27T22:26:27.800Z,5.93
2023-03-27T22:28:58.189Z,7.40
2023-03-27T22:31:27.357Z,4.90
2023-03-27T22:33:55.689Z,6.97
2023-03-27T22:36:24.250Z,6.07
2023-03-27T22:38:52.468Z,5.35
2023-03-27T22:41:21.742Z,4.85
2023-03-27T22:43:50.082Z,5.60
2023-03-27T22:46:21.880Z,7.07
2023-03-27T22:48:55.902Z,6.93
2023-03-27T22:51:24.634Z,3.85
2023-03-27T22:53:52.872Z,4.75
2023-03-27T22:56:21.370Z,6.88
2023-03-27T22:58:49.622Z,6.72
2023-03-27T23:01:19.386Z,4.70
2023-03-27T23:03:47.834Z,7.32
2023-03-27T23:06:20.816Z,5.93
2023-03-27T23:08:49.730Z,5.90
2023-03-27T23:11:19.198Z,5.15
2023-03-27T23:13:47.504Z,7.30
2023-03-27T23:16:15.970Z,7.38
2023-03-27T23:18:45.564Z,5.60
2023-03-27T23:21:16.729Z,7.60
2023-03-27T23:23:45.791Z,7.35
2023-03-27T23:26:14.217Z,5.25
2023-03-27T23:28:43.238Z,4.82
2023-03-27T23:31:13.935Z,5.13
2023-03-27T23:33:43.740Z,6.18
2023-03-27T23:36:15.213Z,8.60
2023-03-27T23:38:44.126Z,5.40
2023-03-27T23:41:14.431Z,8.10
2023-03-27T23:43:42.849Z,5.57
2023-03-27T23:46:11.478Z,7.25
2023-03-27T23:48:41.889Z,6.63
2023-03-27T23:51:11.104Z,7.30
2023-03-27T23:53:40.905Z,9.15
2023-03-27T23:56:10.103Z,2.88
2023-03-27T23:58:38.535Z,6.15
